createdAt,value
2018-09-25T00:00:01.202Z,27.4
2018-09-25T00:02:58.472Z,27.4
2018-09-25T00:05:55.165Z,27.4
2018-09-25T00:08:52.199Z,27.4
2018-09-25T00:14:46.383Z,27.5
2018-09-25T00:17:43.172Z,27.6
2018-09-25T00:20:40.441Z,27.6
2018-09-25T00:23:37.197Z,27.6
2018-09-25T00:26:34.407Z,27.7
2018-09-25T00:29:31.186Z,27.7
2018-09-25T00:32:28.495Z,27.8
2018-09-25T00:35:25.261Z,27.8
2018-09-25T00:41:19.205Z,27.9
2018-09-25T00:44:16.388Z,28
2018-09-25T00:50:10.378Z,28
2018-09-25T00:53:07.234Z,28.1
2018-09-25T01:01:58.260Z,28.2
2018-09-25T01:04:55.231Z,28.3
2018-09-25T01:07:52.282Z,28.3
2018-09-25T01:10:49.232Z,28.3
2018-09-25T01:13:46.287Z,28.4
2018-09-25T01:16:43.251Z,28.4
2018-09-25T01:19:40.292Z,28.4
2018-09-25T01:22:37.250Z,28.5
2018-09-25T01:25:34.298Z,28.4
2018-09-25T01:28:31.268Z,28.4
2018-09-25T01:31:28.306Z,28.5
2018-09-25T01:34:25.285Z,28.4
2018-09-25T01:37:22.313Z,28.6
2018-09-25T01:40:19.287Z,28.6
2018-09-25T01:43:16.321Z,28.7
2018-09-25T01:46:13.286Z,28.7
2018-09-25T01:49:10.486Z,28.7
2018-09-25T01:52:07.306Z,28.7
2018-09-25T01:55:04.357Z,28.7
2018-09-25T01:58:01.305Z,28.8
2018-09-25T02:03:55.370Z,28.8
2018-09-25T02:06:52.324Z,28.8
2018-09-25T02:09:49.589Z,28.8
2018-09-25T02:15:43.540Z,29
2018-09-25T02:21:37.384Z,29.2
2018-09-25T02:27:31.437Z,29.4
2018-09-25T02:30:28.369Z,29.4
2018-09-25T02:33:25.461Z,29.6
2018-09-25T02:36:22.354Z,29.6
2018-09-25T02:39:19.442Z,29.7
2018-09-25T02:42:17.162Z,29.8
2018-09-25T02:42:17.167Z,29.8
2018-09-25T02:45:13.606Z,29.8
2018-09-25T02:48:10.386Z,30
2018-09-25T02:57:01.467Z,30.2
2018-09-25T02:59:58.384Z,30.3
2018-09-25T03:02:55.471Z,30.4
2018-09-25T03:05:52.413Z,30.3
2018-09-25T03:08:49.494Z,30.3
2018-09-25T03:11:46.887Z,30.2
2018-09-25T03:14:43.451Z,30.3
2018-09-25T03:17:40.421Z,30.2
2018-09-25T03:20:37.421Z,30.3
2018-09-25T03:23:34.425Z,30.3
2018-09-25T03:26:31.467Z,30.2
2018-09-25T03:29:28.435Z,30
2018-09-25T03:32:25.503Z,29.9
2018-09-25T03:35:22.443Z,29.6
2018-09-25T03:38:19.488Z,29.4
2018-09-25T03:41:16.442Z,29.1
2018-09-25T03:44:13.496Z,28.9
2018-09-25T03:47:10.474Z,28.8
2018-09-25T03:50:07.510Z,28.6
2018-09-25T03:53:04.473Z,28.4
2018-09-25T03:56:01.631Z,28.3
2018-09-25T03:58:58.485Z,28.2
2018-09-25T04:01:55.523Z,28.2
2018-09-25T04:04:52.534Z,28.2
2018-09-25T04:07:49.592Z,28.1
2018-09-25T04:10:46.524Z,28
2018-09-25T04:13:43.558Z,28
2018-09-25T04:16:40.490Z,28
2018-09-25T04:19:37.570Z,28
2018-09-25T04:22:34.518Z,28.1
2018-09-25T04:25:31.541Z,28.1
2018-09-25T04:28:28.509Z,28
2018-09-25T04:31:25.578Z,27.8
2018-09-25T04:34:22.523Z,27.6
2018-09-25T04:40:16.591Z,27.4
2018-09-25T04:46:10.570Z,27.4
2018-09-25T04:49:07.526Z,27.4
2018-09-25T04:52:04.606Z,27.3
2018-09-25T04:55:01.561Z,27.3
2018-09-25T04:57:58.590Z,27.3
2018-09-25T05:06:49.625Z,27.4
2018-09-25T05:09:46.564Z,27.4
2018-09-25T05:12:43.631Z,27.5
2018-09-25T05:15:40.580Z,27.5
2018-09-25T05:18:37.783Z,27.5
2018-09-25T05:21:34.597Z,27.6
2018-09-25T05:24:31.647Z,27.6
2018-09-25T05:27:28.606Z,27.7
2018-09-25T05:30:25.631Z,27.8
2018-09-25T05:33:22.637Z,28
2018-09-25T05:36:19.654Z,28.3
2018-09-25T05:39:16.628Z,28.6
2018-09-25T05:42:13.672Z,28.6
2018-09-25T05:45:10.639Z,28.9
2018-09-25T05:48:07.711Z,29.1
2018-09-25T05:51:04.645Z,29.2
2018-09-25T05:54:01.679Z,29.4
2018-09-25T05:56:58.646Z,29.6
2018-09-25T05:59:55.700Z,29.8
2018-09-25T06:02:52.657Z,29.9
2018-09-25T06:05:49.703Z,30
2018-09-25T06:08:46.660Z,30.2
2018-09-25T06:11:43.687Z,30.2
2018-09-25T06:14:40.669Z,30.1
2018-09-25T06:20:34.720Z,29.9
2018-09-25T06:23:31.681Z,30.2
2018-09-25T06:26:28.724Z,30.3
2018-09-25T06:29:25.698Z,30.4
2018-09-25T06:32:22.758Z,30.6
2018-09-25T06:35:19.704Z,30.6
2018-09-25T06:38:16.754Z,30.7
2018-09-25T06:50:04.789Z,31.4
2018-09-25T06:53:01.728Z,31.6
2018-09-25T06:55:58.794Z,31.6
2018-09-25T06:58:55.749Z,31.7
2018-09-25T07:01:52.795Z,31.8
2018-09-25T07:04:49.772Z,31.9
2018-09-25T07:07:46.796Z,32
2018-09-25T07:10:43.862Z,32.1
2018-09-25T07:13:40.803Z,32
2018-09-25T07:16:37.765Z,32.1
2018-09-25T07:19:34.812Z,32.1
2018-09-25T07:22:31.825Z,32.2
2018-09-25T07:25:28.816Z,32.2
2018-09-25T07:28:25.790Z,32.4
2018-09-25T07:37:16.812Z,32.3
2018-09-25T07:40:13.851Z,32.4
2018-09-25T07:43:10.878Z,32.5
2018-09-25T07:46:07.825Z,32.5
2018-09-25T07:49:04.882Z,32.6
2018-09-25T07:52:01.857Z,32.7
2018-09-25T07:54:59.026Z,32.7
2018-09-25T07:57:55.824Z,32.7
2018-09-25T08:00:52.888Z,32.7
2018-09-25T08:03:49.855Z,32.7
2018-09-25T08:06:46.900Z,32.8
2018-09-25T08:09:43.858Z,32.8
2018-09-25T08:12:40.910Z,32.7
2018-09-25T08:15:37.864Z,32.7
2018-09-25T08:18:34.909Z,32.7
2018-09-25T08:21:31.865Z,32.6
2018-09-25T08:24:28.925Z,32.6
2018-09-25T08:27:25.869Z,32.6
2018-09-25T08:30:23.066Z,32.6
2018-09-25T08:33:19.889Z,32.5
2018-09-25T08:36:16.957Z,32.5
2018-09-25T08:39:13.997Z,32.6
2018-09-25T08:42:10.940Z,32.6
2018-09-25T08:45:07.919Z,32.6
2018-09-25T08:48:04.959Z,32.6
2018-09-25T08:51:01.913Z,32.6
2018-09-25T08:53:58.968Z,32.6
2018-09-25T08:56:55.943Z,32.6
2018-09-25T08:59:52.972Z,32.5
2018-09-25T09:02:49.948Z,32.5
2018-09-25T09:05:47.147Z,32.4
2018-09-25T09:08:43.937Z,32.4
2018-09-25T09:14:38.163Z,32.2
2018-09-25T09:17:34.983Z,32.2
2018-09-25T09:20:32.012Z,32.2
2018-09-25T09:23:28.961Z,32.3
2018-09-25T09:26:26.012Z,32.2
2018-09-25T09:29:22.979Z,32.3
2018-09-25T09:32:20.004Z,32.3
2018-09-25T09:35:16.981Z,32.2
2018-09-25T09:38:14.025Z,32.1
2018-09-25T09:41:11.057Z,32
2018-09-25T09:44:08.028Z,31.9
2018-09-25T09:47:04.984Z,31.8
2018-09-25T09:50:02.066Z,31.8
2018-09-25T09:52:59.026Z,31.8
2018-09-25T09:55:56.034Z,31.7
2018-09-25T09:58:53.024Z,31.6
2018-09-25T10:01:50.068Z,31.4
2018-09-25T10:04:47.079Z,31.4
2018-09-25T10:07:44.054Z,31.3
2018-09-25T10:10:41.049Z,31.2
2018-09-25T10:13:38.079Z,31.2
2018-09-25T10:16:35.027Z,31.1
2018-09-25T10:19:32.060Z,31
2018-09-25T10:22:29.063Z,31
2018-09-25T10:28:23.106Z,30.9
2018-09-25T10:31:20.080Z,30.9
2018-09-25T10:34:17.160Z,30.9
2018-09-25T10:37:14.075Z,30.8
2018-09-25T10:40:11.133Z,30.8
2018-09-25T10:43:08.111Z,30.7
2018-09-25T10:49:02.302Z,30.6
2018-09-25T10:51:59.098Z,30.6
2018-09-25T10:57:53.129Z,30.5
2018-09-25T11:00:50.072Z,30.5
2018-09-25T11:03:47.168Z,30.4
2018-09-25T11:06:44.134Z,30.4
2018-09-25T11:09:41.170Z,30.3
2018-09-25T11:12:38.143Z,30.3
2018-09-25T11:15:35.172Z,30.2
2018-09-25T11:18:32.155Z,30.2
2018-09-25T11:24:26.191Z,30.1
2018-09-25T11:27:23.155Z,30.1
2018-09-25T11:30:20.205Z,30.1
2018-09-25T11:33:17.167Z,30
2018-09-25T11:36:14.211Z,30
2018-09-25T11:39:11.156Z,29.9
2018-09-25T11:45:05.228Z,29.9
2018-09-25T11:48:02.183Z,29.8
2018-09-25T11:50:59.233Z,29.8
2018-09-25T11:53:56.207Z,29.7
2018-09-25T11:56:53.240Z,29.7
2018-09-25T11:59:50.201Z,29.6
2018-09-25T12:02:47.255Z,29.6
2018-09-25T12:05:44.220Z,29.6
2018-09-25T12:11:38.263Z,29.6
2018-09-25T12:14:35.230Z,29.5
2018-09-25T12:17:32.348Z,29.4
2018-09-25T12:20:29.235Z,29.4
2018-09-25T12:23:26.294Z,29.4
2018-09-25T12:26:23.244Z,29.4
2018-09-25T12:29:20.317Z,29.4
2018-09-25T12:32:17.247Z,29.3
2018-09-25T12:35:14.326Z,29.3
2018-09-25T12:38:11.260Z,29.3
2018-09-25T12:41:08.304Z,29.3
2018-09-25T12:44:05.265Z,29.3
2018-09-25T12:47:02.306Z,29.2
2018-09-25T12:49:59.280Z,29.2
2018-09-25T12:52:56.318Z,29.2
2018-09-25T12:55:53.281Z,29.2
2018-09-25T12:58:50.327Z,29.2
2018-09-25T13:01:47.285Z,29.2
2018-09-25T13:07:41.366Z,29.1
2018-09-25T13:10:38.311Z,29.1
2018-09-25T13:13:35.343Z,29.1
2018-09-25T13:16:32.339Z,29.1
2018-09-25T13:19:29.356Z,29.1
2018-09-25T13:25:23.351Z,29.1
2018-09-25T13:28:20.312Z,29
2018-09-25T13:31:17.397Z,29
2018-09-25T13:37:11.368Z,29.1
2018-09-25T13:40:08.330Z,29.1
2018-09-25T13:43:05.399Z,29
2018-09-25T13:46:02.366Z,29
2018-09-25T13:48:59.374Z,29
2018-09-25T13:51:56.365Z,29.1
2018-09-25T13:57:50.555Z,29.2
2018-09-25T14:00:47.347Z,29.2
2018-09-25T14:06:41.425Z,29.1
2018-09-25T14:09:38.462Z,29
2018-09-25T14:12:35.442Z,29
2018-09-25T14:18:29.485Z,28.8
2018-09-25T14:21:26.397Z,28.7
2018-09-25T14:24:23.419Z,28.7
2018-09-25T14:27:20.409Z,28.7
2018-09-25T14:30:17.446Z,28.6
2018-09-25T14:33:14.396Z,28.6
2018-09-25T14:36:11.475Z,28.6
2018-09-25T14:39:08.425Z,28.6
2018-09-25T14:45:02.450Z,28.7
2018-09-25T14:47:59.458Z,28.6
2018-09-25T14:50:56.482Z,28.6
2018-09-25T14:53:53.435Z,28.6
2018-09-25T14:56:50.519Z,28.5
2018-09-25T15:02:44.497Z,28.5
2018-09-25T15:05:41.487Z,28.5
2018-09-25T15:08:38.530Z,28.5
2018-09-25T15:11:35.488Z,28.5
2018-09-25T15:14:32.537Z,28.5
2018-09-25T15:17:29.496Z,28.4
2018-09-25T15:29:17.550Z,28.4
2018-09-25T15:35:11.660Z,28.4
2018-09-25T15:41:05.592Z,28.4
2018-09-25T15:49:56.602Z,28.3
2018-09-25T15:52:53.560Z,28.3
2018-09-25T15:55:50.575Z,28.3
2018-09-25T16:01:44.593Z,28.3
2018-09-25T16:10:35.602Z,28.1
2018-09-25T16:13:32.566Z,28
2018-09-25T16:22:23.625Z,28
2018-09-25T16:40:05.779Z,27.8
2018-09-25T16:43:02.596Z,27.8
2018-09-25T17:30:14.881Z,27.9
2018-09-25T17:39:05.733Z,27.9
2018-09-25T18:02:41.767Z,27.8
2018-09-25T18:11:32.781Z,27.9
2018-09-25T18:20:23.804Z,27.9
2018-09-25T18:29:14.798Z,27.8
2018-09-25T18:46:56.829Z,27.7
2018-09-25T18:49:53.795Z,27.6
2018-09-25T18:52:50.842Z,27.6
2018-09-25T18:55:47.791Z,27.6
2018-09-25T18:58:44.827Z,27.6
2018-09-25T19:01:41.805Z,27.5
2018-09-25T19:04:38.867Z,27.5
2018-09-25T19:07:35.806Z,27.5
2018-09-25T19:13:29.869Z,27.4
2018-09-25T19:16:26.833Z,27.4
2018-09-25T19:19:23.924Z,27.4
2018-09-25T19:22:20.822Z,27.3
2018-09-25T19:28:14.927Z,27.3
2018-09-25T19:31:11.843Z,27.3
2018-09-25T19:34:08.886Z,27.3
2018-09-25T19:37:05.859Z,27.3
2018-09-25T19:51:50.916Z,27.2
2018-09-25T19:54:47.851Z,27.2
2018-09-25T19:57:44.930Z,27.2
2018-09-25T20:00:41.869Z,27.2
2018-09-25T20:03:38.900Z,27.2
2018-09-25T20:06:35.957Z,27.2
2018-09-25T20:09:32.931Z,27.2
2018-09-25T20:12:29.897Z,27.2
2018-09-25T20:21:20.963Z,27.2
2018-09-25T20:24:17.905Z,27.2
2018-09-25T20:27:14.963Z,27.2
2018-09-25T20:30:11.926Z,27.2
2018-09-25T20:33:09.123Z,27.2
2018-09-25T20:36:05.910Z,27.2
2018-09-25T20:39:02.937Z,27.2
2018-09-25T20:41:59.945Z,27.2
2018-09-25T20:44:56.989Z,27.2
2018-09-25T20:47:53.953Z,27.2
2018-09-25T20:50:51.162Z,27.2
2018-09-25T20:53:47.996Z,27.2
2018-09-25T20:56:44.983Z,27.2
2018-09-25T20:59:41.932Z,27.1
2018-09-25T21:02:39.017Z,27.2
2018-09-25T21:05:35.960Z,27.1
2018-09-25T21:08:32.990Z,27.1
2018-09-25T21:11:30.013Z,27.1
2018-09-25T21:14:27.027Z,27.1
2018-09-25T21:17:24.002Z,27.2
2018-09-25T21:20:21.164Z,27.1
2018-09-25T21:23:17.995Z,27.1
2018-09-25T21:26:15.032Z,27.1
2018-09-25T21:29:11.983Z,27.1
2018-09-25T21:35:06.059Z,27.1
2018-09-25T21:38:03.012Z,27
2018-09-25T21:41:00.032Z,27
2018-09-25T21:43:57.041Z,27
2018-09-25T21:46:54.064Z,27
2018-09-25T21:49:51.042Z,27
2018-09-25T21:52:48.088Z,27
2018-09-25T21:55:45.037Z,27
2018-09-25T21:58:42.092Z,27
2018-09-25T22:01:39.033Z,27
2018-09-25T22:04:36.093Z,27
2018-09-25T22:07:33.063Z,27
2018-09-25T22:10:30.105Z,27
2018-09-25T22:13:27.073Z,26.9
2018-09-25T22:19:21.110Z,26.9
2018-09-25T22:22:18.066Z,26.9
2018-09-25T22:25:15.115Z,26.9
2018-09-25T22:28:12.102Z,26.9
2018-09-25T22:31:09.122Z,26.9
2018-09-25T22:34:06.089Z,26.9
2018-09-25T22:37:03.145Z,26.9
2018-09-25T22:40:00.101Z,26.8
2018-09-25T22:42:57.140Z,26.8
2018-09-25T22:45:54.106Z,26.8
2018-09-25T22:48:51.150Z,26.8
2018-09-25T22:51:48.114Z,26.8
2018-09-25T22:54:45.167Z,26.8
2018-09-25T22:57:42.135Z,26.7
2018-09-25T23:00:39.176Z,26.8
2018-09-25T23:06:33.188Z,26.7
2018-09-25T23:09:30.137Z,26.7
2018-09-25T23:12:27.187Z,26.7
2018-09-25T23:15:24.144Z,26.7
2018-09-25T23:21:18.215Z,26.7
2018-09-25T23:24:15.175Z,26.7
2018-09-25T23:27:12.595Z,26.8
2018-09-25T23:30:09.180Z,26.8
2018-09-25T23:33:06.224Z,26.7
2018-09-25T23:36:03.182Z,26.7
2018-09-25T23:39:00.370Z,26.8
2018-09-25T23:41:57.229Z,26.8
2018-09-25T23:44:54.260Z,26.9
2018-09-25T23:47:51.204Z,26.9
2018-09-25T23:50:48.239Z,26.9
2018-09-25T23:56:42.271Z,27
